Hauptseite
METAR-TAF:

METAR-TAF

Flughäfen :

Bohrplattform

J6-a, Niederlande

Breite: 53-49-27N, Länge: 2-56-43E, Höhe: 34 m

Beobachtung

Neuester Wetterbericht von vor 51 Minuten, um 17:55 UTC
Wind 18 kt aus Süd/Südwest
Temperatur 13°C
Luftfeuchtigkeit 82%
Luftdruck 1013 hPa
Sichtweite 10 km oder mehr

METAR: EHJA 231755Z AUTO 21018KT 9999 ///////// 13/10 Q1013

Zeit: 20:46 (18:46 UTC)


TAF: fehlend

Wetterbeobachtungen und Prognosen von mehr als 4000 Flughäfen (METAR und TAF Bericht).

Die verfügbaren Stationen werden durch gelbe und rote Markierungen auf der Karte dargestellt.

Führen Sie die Maus auf sie, um den Namen der Station zu sehen.

Darauf klicken, um die Beobachtung von Wetterbeobachtungen und Prognosen zu sehen.

Um die Karte zu ändern : klicken Sie auf den grünen Tasten mit einem schwarzen Kreuz Zum Vergrößern, auf den grünen Button mit einem Gedankenstrich zu verkleinern, oder auf die grünen Pfeile für benachbarte Karten.


METAR-TAF: